createdAt,value
2019-02-05T00:05:41.341Z,3.70
2019-02-05T00:08:10.942Z,3.50
2019-02-05T00:10:40.437Z,4.57
2019-02-05T00:13:10.048Z,5.10
2019-02-05T00:15:39.608Z,4.70
2019-02-05T00:18:09.142Z,4.47
2019-02-05T00:20:38.662Z,4.12
2019-02-05T00:28:44.012Z,4.10
2019-02-05T00:31:13.596Z,4.50
2019-02-05T00:33:43.154Z,4.53
2019-02-05T00:36:33.480Z,3.83
2019-02-05T00:41:42.170Z,3.70
2019-02-05T00:44:42.114Z,5.33
2019-02-05T00:47:11.907Z,4.40
2019-02-05T00:49:41.483Z,4.23
2019-02-05T00:52:11.151Z,4.10
2019-02-05T00:54:40.650Z,4.43
2019-02-05T00:57:10.121Z,4.43
2019-02-05T00:59:39.649Z,4.37
2019-02-05T01:02:09.224Z,3.93
2019-02-05T01:04:38.801Z,3.70
2019-02-05T01:07:08.694Z,4.60
2019-02-05T01:09:38.237Z,4.27
2019-02-05T01:12:07.873Z,3.47
2019-02-05T01:14:37.395Z,3.30
2019-02-05T01:17:06.937Z,4.20
2019-02-05T01:19:36.479Z,3.13
2019-02-05T01:22:13.321Z,3.40
2019-02-05T01:24:42.791Z,3.90
2019-02-05T01:27:31.548Z,4.57
2019-02-05T01:30:01.104Z,3.58
2019-02-05T01:32:30.777Z,3.80
2019-02-05T01:35:00.328Z,4.63
2019-02-05T01:37:29.908Z,3.20
2019-02-05T01:39:59.407Z,3.97
2019-02-05T01:42:29.045Z,4.30
2019-02-05T01:45:20.310Z,3.40
2019-02-05T01:47:49.788Z,4.35
2019-02-05T01:57:23.965Z,3.90
2019-02-05T02:02:35.377Z,4.90
2019-02-05T02:05:24.516Z,3.87
2019-02-05T02:07:54.221Z,4.37
2019-02-05T02:10:25.457Z,4.83
2019-02-05T02:12:55.225Z,4.30
2019-02-05T02:18:13.424Z,4.35
2019-02-05T02:26:52.143Z,4.53
2019-02-05T02:29:36.860Z,5.60
2019-02-05T02:32:06.637Z,4.67
2019-02-05T02:34:36.190Z,3.40
2019-02-05T02:37:05.751Z,4.33
2019-02-05T02:39:35.253Z,4.90
2019-02-05T02:42:04.723Z,4.87
2019-02-05T02:44:34.349Z,5.77
2019-02-05T02:50:19.316Z,5.00
2019-02-05T02:52:49.276Z,5.20
2019-02-05T02:55:19.001Z,4.73
2019-02-05T02:57:48.555Z,4.63
2019-02-05T03:00:19.228Z,4.23
2019-02-05T03:02:48.872Z,6.10
2019-02-05T03:05:20.170Z,4.70
2019-02-05T03:07:50.124Z,5.57
2019-02-05T03:11:02.198Z,6.00
2019-02-05T03:13:33.337Z,4.97
2019-02-05T03:16:02.839Z,5.47
2019-02-05T03:18:32.710Z,5.67
2019-02-05T03:21:02.776Z,5.58
2019-02-05T03:23:32.787Z,5.05
2019-02-05T03:26:02.938Z,4.92
2019-02-05T03:28:32.823Z,5.15
2019-02-05T03:31:04.137Z,4.67
2019-02-05T03:33:33.639Z,5.40
2019-02-05T03:36:03.105Z,5.80
2019-02-05T03:38:32.856Z,6.87
2019-02-05T03:41:03.654Z,6.85
2019-02-05T03:43:33.887Z,5.30
2019-02-05T03:46:25.563Z,6.05
2019-02-05T03:55:32.515Z,7.80
2019-02-05T03:58:40.569Z,5.25
2019-02-05T04:01:17.778Z,6.75
2019-02-05T04:03:56.162Z,6.00
2019-02-05T04:07:01.544Z,5.30
2019-02-05T04:10:09.611Z,5.97
2019-02-05T04:13:17.896Z,6.20
2019-02-05T04:16:11.285Z,5.70
2019-02-05T04:19:25.292Z,6.00
2019-02-05T04:22:19.989Z,6.37
2019-02-05T04:25:28.097Z,6.97
2019-02-05T04:28:36.163Z,5.47
2019-02-05T04:31:41.435Z,6.13
2019-02-05T04:34:22.670Z,6.13
2019-02-05T04:37:16.568Z,7.37
2019-02-05T04:40:24.575Z,5.72
2019-02-05T04:43:32.845Z,7.60
2019-02-05T04:46:26.028Z,6.90
2019-02-05T04:49:19.997Z,7.30
2019-02-05T04:52:28.010Z,7.27
2019-02-05T04:55:20.517Z,6.50
2019-02-05T04:58:28.587Z,7.30
2019-02-05T05:01:36.614Z,5.67
2019-02-05T05:04:44.667Z,7.17
2019-02-05T05:07:38.221Z,8.07
2019-02-05T05:10:08.219Z,7.47
2019-02-05T05:12:37.713Z,8.00
2019-02-05T05:15:09.449Z,8.93
2019-02-05T05:17:39.057Z,8.10
2019-02-05T05:20:11.222Z,7.93
2019-02-05T05:22:40.929Z,8.27
2019-02-05T05:25:11.616Z,9.83
2019-02-05T05:28:09.714Z,7.20
2019-02-05T05:31:17.505Z,8.47
2019-02-05T05:33:47.085Z,8.30
2019-02-05T05:36:16.609Z,7.03
2019-02-05T05:38:46.173Z,8.57
2019-02-05T05:41:15.986Z,8.67
2019-02-05T05:43:45.595Z,7.90
2019-02-05T05:46:15.371Z,9.23
2019-02-05T05:48:45.144Z,8.60
2019-02-05T05:51:14.619Z,7.90
2019-02-05T05:53:45.785Z,8.57
2019-02-05T05:56:15.632Z,9.10
2019-02-05T05:58:45.345Z,8.40
2019-02-05T06:01:14.926Z,9.28
2019-02-05T06:03:44.459Z,10.57
2019-02-05T06:06:14.130Z,9.13
2019-02-05T06:11:25.265Z,11.50
2019-02-05T06:13:54.972Z,9.03
2019-02-05T06:16:24.497Z,10.30
2019-02-05T06:18:53.977Z,10.60
2019-02-05T06:21:23.486Z,8.53
2019-02-05T06:23:53.176Z,11.00
2019-02-05T06:26:22.949Z,9.10
2019-02-05T06:28:52.550Z,10.00
2019-02-05T06:31:23.565Z,10.57
2019-02-05T06:33:53.065Z,8.48
2019-02-05T06:36:22.706Z,10.50
2019-02-05T06:38:52.281Z,10.20
2019-02-05T06:44:03.103Z,10.20
2019-02-05T06:46:32.646Z,9.80
2019-02-05T06:49:02.213Z,9.27
2019-02-05T06:51:51.261Z,10.78
2019-02-05T06:54:20.769Z,10.90
2019-02-05T06:56:50.285Z,11.27
2019-02-05T07:04:42.557Z,12.90
2019-02-05T07:07:12.179Z,13.60
2019-02-05T07:09:41.803Z,13.37
2019-02-05T07:12:11.398Z,13.63
2019-02-05T07:14:41.038Z,14.20
2019-02-05T07:17:11.151Z,13.25
2019-02-05T07:19:41.161Z,11.53
2019-02-05T07:22:11.071Z,13.13
2019-02-05T07:24:41.203Z,12.70
2019-02-05T07:27:49.301Z,10.90
2019-02-05T07:30:26.170Z,11.80
2019-02-05T07:35:56.493Z,10.50
2019-02-05T07:38:26.076Z,12.80
2019-02-05T07:40:55.700Z,12.93
2019-02-05T07:43:44.327Z,13.00
2019-02-05T07:46:13.993Z,12.53
2019-02-05T07:48:43.572Z,10.27
2019-02-05T07:51:13.180Z,11.25
2019-02-05T07:53:42.709Z,12.63
2019-02-05T07:56:12.999Z,11.75
2019-02-05T07:59:09.813Z,11.43
2019-02-05T08:04:19.043Z,12.90
2019-02-05T08:12:43.890Z,12.40
2019-02-05T08:15:14.850Z,11.90
2019-02-05T08:17:44.476Z,13.30
2019-02-05T08:23:34.952Z,11.90
2019-02-05T08:26:04.638Z,12.40
2019-02-05T08:34:18.441Z,12.40
2019-02-05T08:36:49.648Z,12.73
2019-02-05T08:39:19.145Z,13.20
2019-02-05T08:41:48.647Z,13.77
2019-02-05T08:47:31.610Z,13.20
2019-02-05T08:50:01.318Z,13.43
2019-02-05T08:52:32.491Z,13.60
2019-02-05T08:58:06.884Z,12.97
2019-02-05T09:00:37.666Z,10.75
2019-02-05T09:03:48.180Z,12.30
2019-02-05T09:06:37.336Z,12.73
2019-02-05T09:09:08.726Z,13.03
2019-02-05T09:11:38.619Z,10.67
2019-02-05T09:14:11.161Z,13.68
2019-02-05T09:17:10.190Z,12.60
2019-02-05T09:19:39.730Z,13.68
2019-02-05T09:22:09.304Z,13.20
2019-02-05T09:24:38.934Z,12.70
2019-02-05T09:27:15.964Z,11.13
2019-02-05T09:29:45.551Z,11.27
2019-02-05T09:32:20.946Z,10.60
2019-02-05T09:34:50.493Z,12.27
2019-02-05T09:37:20.044Z,12.23
2019-02-05T09:39:49.960Z,11.13
2019-02-05T09:42:19.484Z,11.37
2019-02-05T09:50:45.122Z,12.17
2019-02-05T09:53:21.197Z,10.43
2019-02-05T09:55:50.907Z,11.60
2019-02-05T09:58:41.005Z,10.30
2019-02-05T10:01:10.560Z,9.15
2019-02-05T10:03:40.072Z,9.48
2019-02-05T10:06:09.574Z,10.77
2019-02-05T10:09:21.720Z,10.68
2019-02-05T10:11:51.375Z,10.60
2019-02-05T10:14:20.885Z,9.23
2019-02-05T10:19:45.297Z,10.20
2019-02-05T10:22:14.912Z,9.80
2019-02-05T10:24:44.521Z,8.13
2019-02-05T10:27:24.741Z,8.70
2019-02-05T10:29:59.295Z,9.63
2019-02-05T10:32:34.447Z,9.53
2019-02-05T10:35:04.694Z,9.50
2019-02-05T10:37:34.223Z,10.00
2019-02-05T10:40:03.882Z,10.00
2019-02-05T10:42:33.396Z,10.38
2019-02-05T10:45:02.964Z,8.80
2019-02-05T10:47:32.555Z,10.47
2019-02-05T10:52:50.902Z,9.43
2019-02-05T10:55:20.621Z,8.95
2019-02-05T10:57:50.373Z,9.53
2019-02-05T11:00:22.097Z,10.33
2019-02-05T11:02:51.743Z,8.83
2019-02-05T11:05:23.001Z,8.83
2019-02-05T11:07:52.568Z,9.25
2019-02-05T11:10:22.138Z,8.90
2019-02-05T11:12:51.726Z,10.23
2019-02-05T11:15:40.491Z,10.20
2019-02-05T11:18:17.452Z,8.53
2019-02-05T11:20:47.165Z,10.33
2019-02-05T11:23:16.674Z,9.80
2019-02-05T11:25:46.265Z,11.70
2019-02-05T11:28:34.823Z,10.13
2019-02-05T11:31:04.435Z,9.83
2019-02-05T11:33:33.932Z,9.30
2019-02-05T11:36:03.438Z,9.57
2019-02-05T11:38:52.015Z,9.80
2019-02-05T11:41:21.594Z,9.40
2019-02-05T11:46:45.897Z,11.80
2019-02-05T11:49:15.493Z,8.97
2019-02-05T11:52:05.872Z,7.23
2019-02-05T11:54:35.399Z,9.90
2019-02-05T11:57:04.963Z,10.90
2019-02-05T11:59:34.506Z,9.87
2019-02-05T12:02:04.264Z,9.27
2019-02-05T12:04:33.782Z,10.50
2019-02-05T12:10:26.589Z,11.00
2019-02-05T12:12:56.179Z,12.33
2019-02-05T12:15:25.705Z,9.87
2019-02-05T12:17:55.341Z,10.00
2019-02-05T12:20:24.967Z,9.65
2019-02-05T12:22:56.295Z,10.47
2019-02-05T12:25:26.058Z,10.63
2019-02-05T12:27:55.732Z,12.47
2019-02-05T12:30:27.607Z,10.47
2019-02-05T12:33:16.554Z,9.95
2019-02-05T12:36:06.988Z,11.00
2019-02-05T12:38:55.838Z,10.70
2019-02-05T12:41:25.447Z,9.00
2019-02-05T12:43:54.990Z,8.17
2019-02-05T12:46:24.567Z,8.67
2019-02-05T12:48:54.109Z,9.53
2019-02-05T12:51:35.893Z,9.07
2019-02-05T12:54:05.490Z,10.70
2019-02-05T12:56:35.232Z,9.83
2019-02-05T12:59:04.823Z,9.90
2019-02-05T13:01:34.388Z,10.97
2019-02-05T13:04:15.808Z,10.53
2019-02-05T13:06:45.400Z,11.60
2019-02-05T13:09:15.172Z,12.70
2019-02-05T13:11:44.680Z,9.57
2019-02-05T13:14:14.202Z,11.20
2019-02-05T13:16:43.755Z,9.40
2019-02-05T13:19:13.298Z,10.70
2019-02-05T13:21:42.875Z,9.63
2019-02-05T13:24:12.395Z,10.03
2019-02-05T13:26:42.030Z,10.53
2019-02-05T13:29:11.551Z,10.18
2019-02-05T13:34:30.018Z,10.53
2019-02-05T13:37:18.618Z,10.60
2019-02-05T13:39:48.415Z,8.70
2019-02-05T13:42:17.910Z,9.45
2019-02-05T13:44:47.749Z,8.75
2019-02-05T13:47:17.236Z,9.08
2019-02-05T13:49:46.731Z,9.50
2019-02-05T13:52:16.227Z,8.93
2019-02-05T13:54:45.828Z,8.50
2019-02-05T13:57:15.340Z,10.13
2019-02-05T13:59:45.158Z,9.63
2019-02-05T14:02:14.671Z,8.60
2019-02-05T14:04:44.259Z,10.70
2019-02-05T14:07:13.956Z,10.40
2019-02-05T14:10:02.898Z,9.53
2019-02-05T14:12:36.803Z,12.10
2019-02-05T14:15:08.188Z,10.17
2019-02-05T14:17:37.873Z,10.10
2019-02-05T14:20:08.433Z,9.45
2019-02-05T14:22:38.018Z,9.73
2019-02-05T14:25:10.339Z,9.53
2019-02-05T14:27:39.942Z,9.73
2019-02-05T14:30:13.301Z,9.60
2019-02-05T14:32:42.910Z,9.63
2019-02-05T14:35:12.642Z,9.70
2019-02-05T14:37:42.382Z,8.80
2019-02-05T14:40:14.394Z,8.75
2019-02-05T14:43:04.572Z,11.35
2019-02-05T14:45:34.314Z,10.57
2019-02-05T14:48:43.907Z,9.30
2019-02-05T14:51:13.463Z,9.23
2019-02-05T14:54:03.809Z,9.63
2019-02-05T14:56:35.124Z,11.15
2019-02-05T14:59:04.715Z,11.20
2019-02-05T15:01:42.602Z,9.70
2019-02-05T15:07:06.166Z,10.48
2019-02-05T15:09:35.789Z,10.20
2019-02-05T15:12:05.835Z,11.80
2019-02-05T15:14:35.416Z,10.87
2019-02-05T15:17:05.017Z,13.00
2019-02-05T15:19:34.590Z,10.90
2019-02-05T15:22:04.437Z,12.40
2019-02-05T15:24:37.977Z,11.57
2019-02-05T15:27:24.460Z,10.37
2019-02-05T15:29:54.075Z,11.60
2019-02-05T15:32:42.738Z,11.30
2019-02-05T15:35:12.662Z,10.20
2019-02-05T15:37:42.127Z,10.18
2019-02-05T15:40:30.927Z,11.30
2019-02-05T15:43:00.465Z,11.37
2019-02-05T15:48:35.667Z,12.33
2019-02-05T15:51:24.603Z,12.50
2019-02-05T15:53:55.842Z,11.13
2019-02-05T15:56:25.364Z,12.18
2019-02-05T15:59:14.120Z,13.53
2019-02-05T16:01:43.751Z,11.87
2019-02-05T16:04:13.356Z,11.20
2019-02-05T16:06:42.908Z,11.80
2019-02-05T16:09:12.952Z,20.12
2019-02-05T16:11:42.551Z,14.20
2019-02-05T16:14:31.509Z,11.67
2019-02-05T16:19:55.712Z,12.75
2019-02-05T16:22:25.316Z,10.90
2019-02-05T16:27:36.315Z,17.10
2019-02-05T16:30:46.552Z,13.30
2019-02-05T16:36:48.486Z,13.70
2019-02-05T16:39:22.325Z,11.93
2019-02-05T16:41:51.866Z,14.25
2019-02-05T16:44:21.354Z,13.07
2019-02-05T16:46:50.860Z,12.58
2019-02-05T16:49:22.466Z,14.23
2019-02-05T16:51:57.983Z,10.53
2019-02-05T16:54:27.474Z,11.67
2019-02-05T16:56:57.070Z,11.77
2019-02-05T16:59:26.611Z,10.30
2019-02-05T17:04:37.613Z,12.67
2019-02-05T17:07:07.398Z,11.77
2019-02-05T17:09:38.129Z,10.50
2019-02-05T17:12:07.768Z,11.65
2019-02-05T17:14:37.428Z,11.80
2019-02-05T17:17:07.081Z,10.70
2019-02-05T17:19:36.633Z,11.60
2019-02-05T17:22:06.191Z,11.20
2019-02-05T17:24:35.974Z,11.85
2019-02-05T17:27:07.243Z,12.23
2019-02-05T17:29:36.986Z,11.78
2019-02-05T17:32:07.812Z,12.40
2019-02-05T17:34:57.035Z,12.07
2019-02-05T17:37:45.874Z,12.20
2019-02-05T17:40:17.417Z,12.60
2019-02-05T17:42:47.280Z,12.93
2019-02-05T17:45:19.179Z,10.60
2019-02-05T17:48:09.596Z,11.45
2019-02-05T17:50:39.119Z,10.95
2019-02-05T17:53:08.786Z,14.35
2019-02-05T17:55:38.520Z,12.00
2019-02-05T17:58:27.329Z,11.07
2019-02-05T18:03:50.545Z,10.57
2019-02-05T18:06:20.105Z,11.88
2019-02-05T18:08:49.611Z,12.00
2019-02-05T18:11:19.349Z,12.07
2019-02-05T18:16:30.144Z,11.20
2019-02-05T18:18:59.674Z,12.70
2019-02-05T18:21:29.186Z,11.50
2019-02-05T18:23:59.012Z,12.63
2019-02-05T18:26:28.501Z,10.82
2019-02-05T18:28:58.199Z,9.50
2019-02-05T18:31:27.904Z,11.05
2019-02-05T18:33:57.619Z,10.27
2019-02-05T18:36:27.143Z,11.47
2019-02-05T18:39:24.483Z,8.93
2019-02-05T18:41:54.187Z,11.20
2019-02-05T18:44:23.807Z,9.73
2019-02-05T18:46:53.523Z,9.23
2019-02-05T18:49:23.109Z,8.33
2019-02-05T18:51:57.847Z,10.07
2019-02-05T18:54:27.465Z,9.40
2019-02-05T18:56:56.976Z,8.47
2019-02-05T18:59:26.545Z,8.83
2019-02-05T19:02:03.382Z,9.07
2019-02-05T19:04:32.970Z,8.80
2019-02-05T19:09:44.155Z,10.87
2019-02-05T19:12:13.727Z,9.23
2019-02-05T19:14:43.256Z,9.67
2019-02-05T19:17:12.864Z,9.95
2019-02-05T19:19:42.442Z,10.03
2019-02-05T19:25:46.221Z,8.37
2019-02-05T19:28:22.162Z,8.88
2019-02-05T19:30:52.853Z,8.53
2019-02-05T19:33:27.322Z,9.38
2019-02-05T19:36:12.905Z,10.25
2019-02-05T19:38:42.526Z,8.97
2019-02-05T19:41:12.034Z,8.40
2019-02-05T19:43:41.775Z,9.30
2019-02-05T19:46:30.393Z,10.53
2019-02-05T19:49:21.871Z,8.87
2019-02-05T19:52:09.465Z,8.40
2019-02-05T19:54:39.140Z,10.20
2019-02-05T19:57:08.712Z,11.30
2019-02-05T19:59:45.259Z,9.23
2019-02-05T20:02:14.780Z,8.20
2019-02-05T20:04:44.299Z,9.50
2019-02-05T20:07:14.090Z,8.45
2019-02-05T20:09:43.695Z,8.83
2019-02-05T20:12:13.239Z,8.93
2019-02-05T20:14:42.940Z,9.80
2019-02-05T20:17:12.649Z,9.30
2019-02-05T20:19:42.472Z,10.20
2019-02-05T20:22:12.090Z,10.00
2019-02-05T20:24:41.743Z,9.53
2019-02-05T20:27:11.256Z,10.80
2019-02-05T20:29:40.785Z,9.17
2019-02-05T20:32:11.247Z,9.67
2019-02-05T20:37:42.654Z,11.07
2019-02-05T20:40:19.518Z,9.15
2019-02-05T20:42:49.169Z,9.60
2019-02-05T20:45:18.790Z,9.93
2019-02-05T20:47:48.359Z,11.35
2019-02-05T20:50:18.184Z,10.87
2019-02-05T20:52:47.822Z,11.90
2019-02-05T20:55:17.848Z,12.00
2019-02-05T20:57:47.963Z,10.88
2019-02-05T21:00:19.724Z,12.65
2019-02-05T21:02:49.610Z,10.80
2019-02-05T21:05:19.497Z,10.67
2019-02-05T21:07:49.403Z,10.57
2019-02-05T21:10:21.182Z,10.60
2019-02-05T21:13:09.924Z,11.87
2019-02-05T21:15:39.668Z,11.67
2019-02-05T21:18:28.279Z,10.20
2019-02-05T21:20:57.820Z,11.27
2019-02-05T21:23:27.392Z,9.97
2019-02-05T21:25:57.355Z,11.83
2019-02-05T21:28:26.863Z,11.15
2019-02-05T21:30:56.724Z,11.43
2019-02-05T21:36:49.635Z,10.27
2019-02-05T21:39:19.522Z,12.40
2019-02-05T21:41:54.702Z,11.22
2019-02-05T21:44:24.363Z,11.33
2019-02-05T21:46:53.927Z,11.70
2019-02-05T21:49:23.600Z,12.73
2019-02-05T21:51:53.290Z,8.98
2019-02-05T21:54:22.952Z,11.07
2019-02-05T21:56:52.436Z,10.60
2019-02-05T21:59:22.055Z,12.40
2019-02-05T22:01:51.628Z,10.10
2019-02-05T22:04:27.180Z,11.05
2019-02-05T22:06:52.459Z,12.03
2019-02-05T22:09:21.919Z,11.53
2019-02-05T22:11:51.467Z,11.00
2019-02-05T22:14:20.983Z,10.30
2019-02-05T22:16:50.479Z,11.73
2019-02-05T22:19:21.059Z,10.07
2019-02-05T22:21:50.714Z,11.23
2019-02-05T22:24:20.189Z,11.63
2019-02-05T22:26:49.938Z,11.83
2019-02-05T22:29:21.742Z,9.40
2019-02-05T22:31:51.231Z,11.30
2019-02-05T22:34:21.499Z,10.87
2019-02-05T22:36:51.160Z,13.37
2019-02-05T22:39:20.728Z,12.23
2019-02-05T22:41:50.288Z,12.07
2019-02-05T22:44:20.790Z,12.33
2019-02-05T22:46:57.481Z,12.23
2019-02-05T22:49:26.988Z,12.15
2019-02-05T22:51:57.095Z,11.27
2019-02-05T22:54:26.671Z,12.07
2019-02-05T22:56:56.415Z,11.45
2019-02-05T22:59:26.235Z,12.28
2019-02-05T23:02:23.279Z,9.28
2019-02-05T23:05:31.383Z,11.70
2019-02-05T23:08:00.975Z,11.03
2019-02-05T23:11:09.099Z,13.13
2019-02-05T23:13:38.821Z,13.13
2019-02-05T23:16:08.434Z,14.57
2019-02-05T23:18:37.929Z,12.50
2019-02-05T23:21:07.527Z,14.07
2019-02-05T23:23:37.005Z,13.60
2019-02-05T23:26:06.740Z,15.73
2019-02-05T23:28:36.526Z,16.27
2019-02-05T23:31:06.332Z,14.50
2019-02-05T23:33:35.947Z,15.38
2019-02-05T23:36:05.544Z,17.10
2019-02-05T23:38:35.130Z,17.30
2019-02-05T23:41:04.800Z,14.90
2019-02-05T23:43:34.595Z,14.83
2019-02-05T23:46:04.183Z,16.23
2019-02-05T23:48:33.722Z,15.10
2019-02-05T23:51:03.979Z,16.53
2019-02-05T23:53:33.519Z,14.75
2019-02-05T23:56:03.429Z,14.97
2019-02-05T23:58:33.193Z,15.65
